Time;durP1;ratioP1;P1;durP2;ratioP2;P2;SDS_P1;SDS_P2;PMS_P1;PMS_P2;Temp;Humidity;BMP_temperature;BMP_pressure;BME280_temperature;BME280_humidity;BME280_pressure;Samples;Min_cycle;Max_cycle;Signal;HPM_P1;HPM_P2
2022/01/20 00:00:14;;;;;;;9.00;2.25;;;3.30;99.90;;;;;;5076662;28;20040;-72
2022/01/20 00:02:41;;;;;;;13.32;2.67;;;3.30;99.90;;;;;;5075767;28;20392;-73
2022/01/20 00:05:24;;;;;;;7.72;2.05;;;3.30;99.90;;;;;;5076121;28;20052;-72
2022/01/20 00:08:05;;;;;;;10.13;2.22;;;3.40;99.90;;;;;;5075364;28;20048;-72
2022/01/20 00:27:12;;;;;;;12.50;2.10;;;3.50;99.90;;;;;;4997806;28;20050;-72
2022/01/20 00:32:33;;;;;;;15.27;2.90;;;3.50;99.90;;;;;;5016463;28;20056;-72
2022/01/20 00:35:17;;;;;;;10.20;3.45;;;3.40;99.90;;;;;;5090205;28;20055;-72
2022/01/20 00:37:42;;;;;;;16.75;2.58;;;3.40;99.90;;;;;;5057333;28;20401;-72
2022/01/20 00:40:11;;;;;;;14.57;2.67;;;3.50;99.90;;;;;;5054147;28;20048;-72
2022/01/20 00:42:37;;;;;;;10.00;2.08;;;3.40;99.90;;;;;;5054177;28;20048;-72
2022/01/20 00:45:07;;;;;;;11.18;3.03;;;3.40;99.90;;;;;;5053610;28;20088;-72
2022/01/20 00:47:34;;;;;;;16.10;3.10;;;3.40;99.90;;;;;;5054988;28;20049;-71
2022/01/20 00:50:02;;;;;;;16.65;3.15;;;3.40;99.90;;;;;;5053774;28;20045;-72
2022/01/20 00:52:29;;;;;;;7.93;2.40;;;3.40;99.90;;;;;;5053261;28;20053;-72
2022/01/20 00:54:55;;;;;;;14.00;3.03;;;3.40;99.90;;;;;;5054828;28;20083;-72
2022/01/20 00:57:22;;;;;;;10.00;2.75;;;3.40;99.90;;;;;;5053918;28;20088;-73
2022/01/20 00:59:49;;;;;;;17.27;3.38;;;3.40;99.90;;;;;;5053448;28;20094;-72
2022/01/20 01:02:17;;;;;;;9.05;2.70;;;3.40;99.90;;;;;;5053596;28;20577;-72
2022/01/20 01:04:45;;;;;;;15.77;3.00;;;3.50;99.90;;;;;;5054506;28;20095;-72
2022/01/20 01:09:56;;;;;;;11.88;2.20;;;3.70;99.90;;;;;;5073630;28;20206;-72
2022/01/20 01:12:32;;;;;;;5.57;1.63;;;3.80;99.90;;;;;;5089965;28;20136;-72
2022/01/20 01:15:01;;;;;;;6.75;1.40;;;3.70;99.90;;;;;;5089801;28;20051;-72
2022/01/20 01:20:19;;;;;;;9.13;1.77;;;3.70;99.90;;;;;;5072840;28;20049;-72
2022/01/20 01:22:46;;;;;;;4.60;1.20;;;3.70;99.90;;;;;;5073486;28;20484;-74
2022/01/20 01:25:14;;;;;;;5.22;1.38;;;3.70;99.90;;;;;;5072897;28;20493;-72
2022/01/20 01:27:43;;;;;;;7.32;1.90;;;3.70;99.90;;;;;;5072596;28;20052;-72
2022/01/20 01:32:56;;;;;;;6.07;1.55;;;3.60;99.90;;;;;;5069527;28;20060;-72
2022/01/20 01:35:26;;;;;;;4.90;1.33;;;3.60;99.90;;;;;;5072198;28;20048;-73
2022/01/20 01:40:41;;;;;;;7.57;1.52;;;3.50;99.90;;;;;;5052552;28;20099;-73
2022/01/20 01:43:16;;;;;;;6.35;1.40;;;3.40;99.90;;;;;;5053206;28;20052;-72
2022/01/20 01:45:44;;;;;;;4.43;1.40;;;3.30;99.90;;;;;;5052463;28;20055;-72
2022/01/20 01:48:12;;;;;;;10.05;2.15;;;3.30;99.90;;;;;;5052556;28;20053;-72
2022/01/20 01:50:39;;;;;;;10.63;1.80;;;3.30;99.90;;;;;;5052625;28;20057;-72
2022/01/20 01:53:07;;;;;;;11.43;1.65;;;3.20;99.90;;;;;;5052616;28;20553;-72
2022/01/20 01:55:35;;;;;;;13.10;2.83;;;3.20;99.90;;;;;;5052096;28;20390;-72
2022/01/20 01:58:02;;;;;;;7.78;2.30;;;4.00;99.90;;;;;;5052880;28;20088;-72
2022/01/20 02:00:30;;;;;;;12.40;1.98;;;3.30;99.90;;;;;;5052855;28;20546;-72
2022/01/20 02:02:57;;;;;;;12.13;2.92;;;3.40;99.90;;;;;;5052493;28;20483;-72
2022/01/20 02:05:25;;;;;;;9.10;2.30;;;3.50;99.90;;;;;;5052688;28;20049;-72
2022/01/20 02:08:23;;;;;;;9.68;1.98;;;3.60;99.90;;;;;;5052752;28;20106;-72
2022/01/20 02:19:08;;;;;;;8.50;1.95;;;3.80;99.90;;;;;;5072472;28;20054;-71
2022/01/20 02:21:49;;;;;;;10.75;1.80;;;3.80;99.90;;;;;;5072425;28;20052;-72
2022/01/20 02:24:16;;;;;;;5.03;2.13;;;3.60;99.90;;;;;;5088783;28;20052;-70
2022/01/20 02:26:43;;;;;;;12.10;1.92;;;3.50;99.90;;;;;;5072501;28;20560;-73
2022/01/20 02:29:10;;;;;;;9.40;2.10;;;3.50;99.90;;;;;;5089325;28;20098;-72
2022/01/20 02:31:37;;;;;;;11.70;2.25;;;3.40;99.90;;;;;;5071309;28;20505;-72
2022/01/20 02:34:04;;;;;;;9.80;2.53;;;3.30;99.90;;;;;;5065729;28;20570;-72
2022/01/20 02:36:31;;;;;;;11.15;2.88;;;3.40;99.90;;;;;;5052954;28;20106;-71
2022/01/20 02:39:06;;;;;;;14.73;3.22;;;3.40;99.90;;;;;;5072938;28;20118;-71
2022/01/20 02:47:11;;;;;;;10.57;3.03;;;3.40;99.90;;;;;;5072611;28;20044;-73
2022/01/20 02:49:38;;;;;;;14.63;3.78;;;3.40;99.90;;;;;;5068268;28;20053;-72
2022/01/20 02:52:06;;;;;;;16.58;4.45;;;3.50;99.90;;;;;;5052025;28;20072;-72
2022/01/20 02:54:35;;;;;;;19.10;4.10;;;3.50;99.90;;;;;;5052992;28;20057;-73
2022/01/20 02:57:02;;;;;;;28.27;4.78;;;3.60;99.90;;;;;;5052645;28;20276;-71
2022/01/20 02:59:29;;;;;;;27.23;4.53;;;3.60;99.90;;;;;;5069769;28;20447;-73
2022/01/20 03:01:55;;;;;;;16.85;4.35;;;3.70;99.90;;;;;;5083353;28;20084;-74
2022/01/20 03:04:25;;;;;;;15.27;3.75;;;3.80;99.90;;;;;;5095858;28;20043;-72
2022/01/20 03:06:52;;;;;;;12.00;3.50;;;3.80;99.90;;;;;;5112448;28;20037;-73
2022/01/20 03:09:19;;;;;;;11.82;2.80;;;3.80;99.90;;;;;;5095441;28;20060;-72
2022/01/20 03:11:48;;;;;;;15.27;3.63;;;3.70;99.90;;;;;;5094807;28;20579;-72
2022/01/20 03:14:17;;;;;;;16.70;3.85;;;3.70;99.90;;;;;;5111185;28;20048;-73
2022/01/20 03:16:44;;;;;;;13.20;3.85;;;3.70;99.90;;;;;;5095172;28;20037;-71
2022/01/20 03:19:12;;;;;;;14.57;3.38;;;3.60;99.90;;;;;;5095040;28;20052;-73
2022/01/20 03:21:39;;;;;;;20.02;4.15;;;3.60;99.90;;;;;;5106920;28;20040;-73
2022/01/20 03:24:06;;;;;;;21.02;5.35;;;3.60;99.90;;;;;;5074248;28;20052;-72
2022/01/20 03:26:33;;;;;;;16.98;4.25;;;3.70;99.90;;;;;;5063222;28;20060;-71
2022/01/20 03:29:01;;;;;;;13.88;3.92;;;3.60;99.90;;;;;;5052049;28;20132;-73
2022/01/20 03:31:30;;;;;;;15.30;3.70;;;3.60;99.90;;;;;;5055612;28;20131;-73
2022/01/20 03:33:57;;;;;;;17.35;3.30;;;3.60;99.90;;;;;;5054040;28;20041;-73
2022/01/20 03:36:24;;;;;;;19.42;4.03;;;3.60;99.90;;;;;;5054949;28;20053;-73
2022/01/20 03:38:51;;;;;;;9.90;3.20;;;3.60;99.90;;;;;;5054355;28;20049;-72
2022/01/20 03:41:19;;;;;;;11.63;2.58;;;3.60;99.90;;;;;;5051214;28;20055;-72
2022/01/20 03:43:46;;;;;;;7.82;2.22;;;3.60;99.90;;;;;;5051360;28;20393;-73
2022/01/20 03:46:16;;;;;;;8.98;1.95;;;3.60;99.90;;;;;;5051357;28;20400;-72
2022/01/20 03:48:50;;;;;;;13.88;2.67;;;3.60;99.90;;;;;;5063548;28;20131;-72
2022/01/20 03:51:20;;;;;;;10.60;3.38;;;3.60;99.90;;;;;;5072457;28;20057;-71
2022/01/20 03:53:49;;;;;;;13.65;2.70;;;3.50;99.90;;;;;;5070796;28;20063;-73
2022/01/20 03:56:17;;;;;;;8.52;2.55;;;3.40;99.90;;;;;;5070270;28;20460;-73
2022/01/20 03:58:44;;;;;;;9.32;2.17;;;3.30;99.90;;;;;;5071028;28;20588;-71
2022/01/20 04:01:11;;;;;;;8.48;2.00;;;3.30;99.90;;;;;;5070808;28;20157;-72
2022/01/20 04:03:39;;;;;;;8.82;2.55;;;3.20;99.90;;;;;;5072818;28;20471;-72
2022/01/20 04:06:06;;;;;;;14.20;2.35;;;3.20;99.90;;;;;;5072411;28;20087;-73
2022/01/20 04:08:35;;;;;;;10.38;2.72;;;3.10;99.90;;;;;;5071646;28;20155;-73
2022/01/20 04:11:04;;;;;;;4.60;2.10;;;3.00;99.90;;;;;;5072334;28;20041;-72
2022/01/20 04:13:32;;;;;;;6.30;1.70;;;2.90;99.90;;;;;;5054526;28;20080;-73
2022/01/20 04:16:00;;;;;;;13.32;2.80;;;2.90;99.90;;;;;;5053816;28;20102;-72
2022/01/20 04:18:29;;;;;;;9.13;2.08;;;2.90;99.90;;;;;;5054641;28;20095;-72
2022/01/20 04:20:57;;;;;;;6.57;2.00;;;3.10;99.90;;;;;;5054663;28;20042;-72
2022/01/20 04:23:24;;;;;;;7.22;2.17;;;3.00;99.90;;;;;;5054150;28;20075;-72
2022/01/20 04:25:51;;;;;;;7.47;1.98;;;3.00;99.90;;;;;;5054437;28;20131;-72
2022/01/20 04:28:17;;;;;;;12.15;2.20;;;3.00;99.90;;;;;;5054658;28;20139;-72
2022/01/20 04:30:44;;;;;;;9.80;2.45;;;3.10;99.90;;;;;;5053814;28;20060;-72
2022/01/20 04:33:11;;;;;;;7.63;2.53;;;3.10;99.90;;;;;;5053917;28;20048;-72
2022/01/20 04:35:38;;;;;;;11.70;2.83;;;3.10;99.90;;;;;;5054425;28;20479;-72
2022/01/20 04:38:07;;;;;;;8.73;3.25;;;3.10;99.90;;;;;;5065547;28;20545;-72
2022/01/20 04:40:39;;;;;;;8.32;2.72;;;3.20;99.90;;;;;;5074381;28;20443;-72
2022/01/20 04:43:06;;;;;;;14.32;2.55;;;3.20;99.90;;;;;;5074225;28;20048;-72
2022/01/20 04:45:39;;;;;;;11.77;2.85;;;3.10;99.90;;;;;;5073738;28;20106;-74
2022/01/20 04:48:18;;;;;;;14.02;2.75;;;3.30;99.90;;;;;;5075585;28;20140;-73
2022/01/20 04:58:59;;;;;;;10.27;2.50;;;2.80;99.90;;;;;;5075296;28;20126;-71
2022/01/20 05:01:26;;;;;;;8.15;2.50;;;2.70;99.90;;;;;;5053216;28;20045;-72
2022/01/20 05:03:54;;;;;;;8.73;2.33;;;2.70;99.90;;;;;;5053163;28;20052;-70
2022/01/20 05:06:21;;;;;;;10.43;2.13;;;2.70;99.90;;;;;;5054495;28;20439;-70
2022/01/20 05:08:52;;;;;;;6.28;1.40;;;2.70;99.90;;;;;;5055005;28;20041;-71
2022/01/20 05:11:18;;;;;;;6.10;1.48;;;2.60;99.90;;;;;;5052225;28;20586;-71
2022/01/20 05:13:46;;;;;;;2.88;1.45;;;2.60;99.90;;;;;;5051922;28;20044;-70
2022/01/20 05:16:12;;;;;;;6.43;0.80;;;2.50;99.90;;;;;;5052444;28;20049;-70
2022/01/20 05:18:39;;;;;;;4.65;1.60;;;2.50;99.90;;;;;;5051722;28;20128;-71
2022/01/20 05:21:06;;;;;;;4.45;1.40;;;2.50;99.90;;;;;;5052118;28;20041;-72
2022/01/20 05:23:33;;;;;;;4.80;1.70;;;2.50;99.90;;;;;;5052541;28;20053;-71
2022/01/20 05:26:01;;;;;;;5.50;2.35;;;2.40;99.90;;;;;;5051451;28;20059;-71
2022/01/20 05:28:28;;;;;;;9.32;1.73;;;2.30;99.90;;;;;;5052406;28;20080;-71
2022/01/20 05:30:55;;;;;;;6.45;1.83;;;2.30;99.90;;;;;;5052390;28;20463;-71
2022/01/20 05:33:22;;;;;;;10.00;2.80;;;2.20;99.90;;;;;;5051533;28;20114;-70
2022/01/20 05:35:50;;;;;;;11.10;2.95;;;2.10;99.90;;;;;;5051979;28;20102;-71
2022/01/20 05:38:16;;;;;;;18.25;2.92;;;2.10;99.90;;;;;;5051986;28;20080;-71
2022/01/20 05:40:45;;;;;;;18.92;3.58;;;2.10;99.90;;;;;;5052533;28;20099;-71
2022/01/20 05:43:13;;;;;;;23.08;4.70;;;2.10;99.90;;;;;;5051900;28;20102;-71
2022/01/20 05:45:40;;;;;;;10.15;3.17;;;2.00;99.90;;;;;;5051514;28;20052;-70
2022/01/20 05:48:13;;;;;;;15.38;3.08;;;2.00;99.90;;;;;;5051434;28;20049;-71
2022/01/20 05:50:40;;;;;;;10.07;2.85;;;2.00;99.90;;;;;;5051968;28;20124;-70
2022/01/20 05:53:08;;;;;;;8.35;2.90;;;1.90;99.90;;;;;;5053431;28;20095;-71
2022/01/20 05:55:36;;;;;;;8.68;2.72;;;2.00;99.90;;;;;;5050952;28;20049;-71
2022/01/20 05:58:04;;;;;;;16.33;2.47;;;2.00;99.90;;;;;;5053195;28;20053;-71
2022/01/20 06:00:33;;;;;;;14.88;3.17;;;2.10;99.90;;;;;;5052409;28;20080;-70
2022/01/20 06:05:44;;;;;;;13.35;2.80;;;2.20;99.90;;;;;;5066504;28;20377;-71
2022/01/20 06:08:11;;;;;;;13.70;2.63;;;2.30;99.90;;;;;;5054531;28;20052;-71
2022/01/20 06:10:38;;;;;;;9.85;3.13;;;2.40;99.90;;;;;;5049034;28;20049;-71
2022/01/20 06:13:06;;;;;;;20.27;4.20;;;2.50;99.90;;;;;;5052852;28;20451;-71
2022/01/20 06:15:34;;;;;;;12.70;3.10;;;2.60;99.90;;;;;;5050642;28;20095;-71
2022/01/20 06:18:01;;;;;;;13.93;3.42;;;2.60;99.90;;;;;;5052020;28;20053;-71
2022/01/20 06:20:29;;;;;;;11.88;3.10;;;2.60;99.90;;;;;;5050884;28;20103;-72
2022/01/20 06:22:56;;;;;;;23.92;3.53;;;2.60;99.90;;;;;;5065148;28;20052;-71
2022/01/20 06:25:23;;;;;;;16.50;2.80;;;2.60;99.90;;;;;;5051085;28;20106;-72
2022/01/20 06:27:51;;;;;;;14.15;2.72;;;2.50;99.90;;;;;;5051697;28;20101;-71
2022/01/20 06:30:18;;;;;;;12.57;3.95;;;2.50;99.90;;;;;;5047814;28;20085;-71
2022/01/20 06:32:46;;;;;;;13.43;3.28;;;2.60;99.90;;;;;;5050397;28;20049;-70
2022/01/20 06:35:13;;;;;;;11.88;2.78;;;2.60;99.90;;;;;;5051919;28;20475;-71
2022/01/20 06:37:40;;;;;;;15.55;3.58;;;2.50;99.90;;;;;;5050780;28;20056;-70
2022/01/20 06:40:08;;;;;;;9.90;3.15;;;2.40;99.90;;;;;;5051114;28;20098;-71
2022/01/20 06:42:35;;;;;;;10.38;2.53;;;2.30;99.90;;;;;;5050516;28;20044;-70
2022/01/20 06:45:03;;;;;;;7.72;3.03;;;2.20;99.90;;;;;;5050204;28;20516;-72
2022/01/20 06:47:30;;;;;;;11.38;2.72;;;2.10;99.90;;;;;;5050941;28;20083;-71
2022/01/20 06:49:59;;;;;;;7.07;2.15;;;2.10;99.90;;;;;;5050861;28;20132;-70
2022/01/20 06:52:27;;;;;;;14.25;2.45;;;2.10;99.90;;;;;;5050318;28;20049;-71
2022/01/20 06:54:54;;;;;;;8.27;2.17;;;2.00;99.90;;;;;;5050772;28;20497;-69
2022/01/20 06:57:21;;;;;;;15.85;2.72;;;2.40;99.90;;;;;;5050135;28;20048;-70
2022/01/20 06:59:49;;;;;;;8.70;3.22;;;1.90;99.90;;;;;;5050792;28;20136;-71
2022/01/20 07:02:16;;;;;;;9.15;2.58;;;1.90;99.90;;;;;;5050621;28;20477;-69
2022/01/20 07:04:43;;;;;;;13.90;3.42;;;1.80;99.90;;;;;;5050077;28;20473;-70
2022/01/20 07:07:12;;;;;;;11.02;2.42;;;1.80;99.90;;;;;;5050947;28;20052;-71
2022/01/20 07:09:39;;;;;;;11.90;2.40;;;1.70;99.90;;;;;;5048301;28;20053;-71
2022/01/20 07:12:07;;;;;;;15.50;2.92;;;1.70;99.90;;;;;;5050282;28;20033;-71
2022/01/20 07:14:34;;;;;;;13.55;2.80;;;1.80;99.90;;;;;;5050787;28;20076;-71
2022/01/20 07:17:01;;;;;;;9.68;2.08;;;1.90;99.90;;;;;;5050490;28;20153;-71
2022/01/20 07:19:27;;;;;;;7.30;1.73;;;2.10;99.90;;;;;;5050210;28;20049;-71
2022/01/20 07:21:54;;;;;;;12.90;2.28;;;2.10;99.90;;;;;;5050627;28;20102;-71
2022/01/20 07:24:22;;;;;;;11.23;3.13;;;2.10;99.90;;;;;;5050668;28;20080;-71
2022/01/20 07:26:49;;;;;;;8.05;2.22;;;2.20;99.90;;;;;;5049702;28;20136;-71
2022/01/20 07:29:16;;;;;;;9.73;3.08;;;2.20;99.90;;;;;;5050609;28;20094;-71
2022/01/20 07:31:43;;;;;;;6.97;2.60;;;2.10;99.90;;;;;;5050170;28;20048;-71
2022/01/20 07:34:10;;;;;;;15.68;3.45;;;2.10;99.90;;;;;;5050053;28;20094;-71
2022/01/20 07:36:36;;;;;;;7.15;2.53;;;2.00;99.90;;;;;;5050107;28;20049;-72
2022/01/20 07:39:04;;;;;;;12.40;3.40;;;2.00;99.90;;;;;;5041657;28;20505;-72
2022/01/20 07:41:32;;;;;;;20.55;3.70;;;2.10;99.90;;;;;;5030746;28;20088;-72
2022/01/20 07:43:59;;;;;;;15.60;2.88;;;2.00;99.90;;;;;;5072619;28;20131;-71
2022/01/20 07:46:26;;;;;;;16.58;3.28;;;2.00;99.90;;;;;;5053124;28;20072;-71
2022/01/20 07:48:53;;;;;;;8.77;2.45;;;2.00;99.90;;;;;;5055139;28;20083;-70
2022/01/20 07:51:20;;;;;;;14.77;3.00;;;2.10;99.90;;;;;;5055393;28;20088;-71
2022/01/20 07:53:47;;;;;;;11.57;3.00;;;2.10;99.90;;;;;;5054267;28;20087;-71
2022/01/20 07:56:14;;;;;;;14.20;3.30;;;2.10;99.90;;;;;;5055948;28;20084;-72
2022/01/20 07:58:42;;;;;;;14.40;2.83;;;2.20;99.90;;;;;;5071840;28;20138;-72
2022/01/20 08:01:09;;;;;;;10.57;2.92;;;2.20;99.90;;;;;;5066411;28;20133;-71
2022/01/20 08:03:36;;;;;;;13.05;2.90;;;2.20;99.90;;;;;;5054531;28;20501;-72
2022/01/20 08:06:03;;;;;;;20.25;3.45;;;2.20;99.90;;;;;;5054307;28;20138;-72
2022/01/20 08:08:30;;;;;;;13.35;3.10;;;2.20;99.90;;;;;;5053925;28;20086;-71
2022/01/20 08:10:57;;;;;;;13.43;3.20;;;2.30;99.90;;;;;;5054324;28;20060;-71
2022/01/20 08:13:24;;;;;;;13.98;3.85;;;2.30;99.90;;;;;;5054230;28;20045;-72
2022/01/20 08:15:52;;;;;;;11.15;3.15;;;2.30;99.90;;;;;;5053602;28;20488;-73
2022/01/20 08:18:19;;;;;;;8.73;2.92;;;2.40;99.90;;;;;;5054099;28;20049;-71
2022/01/20 08:20:46;;;;;;;12.77;2.83;;;2.50;99.90;;;;;;5053913;28;20056;-71
2022/01/20 08:23:13;;;;;;;10.88;3.17;;;2.50;99.90;;;;;;5070381;28;20057;-71
2022/01/20 08:25:39;;;;;;;12.13;2.40;;;2.70;99.90;;;;;;5055212;28;20053;-72
2022/01/20 08:28:06;;;;;;;9.45;2.63;;;3.40;99.90;;;;;;5077653;28;20048;-71
2022/01/20 08:30:33;;;;;;;11.55;2.88;;;4.30;99.90;;;;;;5090597;28;20496;-72
2022/01/20 08:33:01;;;;;;;12.30;3.30;;;5.20;99.90;;;;;;5074088;28;20053;-73
2022/01/20 08:35:31;;;;;;;6.63;2.42;;;6.00;99.90;;;;;;5091206;28;20061;-71
2022/01/20 08:37:59;;;;;;;12.32;3.80;;;6.80;99.90;;;;;;5088622;28;20088;-72
2022/01/20 08:40:27;;;;;;;8.55;2.42;;;7.40;99.90;;;;;;5054035;28;20090;-71
2022/01/20 08:42:55;;;;;;;13.98;3.40;;;8.10;99.90;;;;;;5053574;28;20859;-73
2022/01/20 08:45:24;;;;;;;14.50;3.15;;;8.80;99.90;;;;;;5053915;28;20508;-72
2022/01/20 08:47:52;;;;;;;7.38;2.45;;;8.60;99.90;;;;;;5053989;28;20049;-71
2022/01/20 08:50:20;;;;;;;8.55;2.53;;;8.00;99.90;;;;;;5053383;28;20386;-71
2022/01/20 08:52:47;;;;;;;5.10;1.13;;;7.00;99.90;;;;;;5053478;28;20563;-72
2022/01/20 08:55:15;;;;;;;6.68;1.60;;;6.00;99.90;;;;;;5053939;28;20053;-70
2022/01/20 08:57:42;;;;;;;6.10;1.45;;;5.30;99.90;;;;;;5053053;28;20559;-72
2022/01/20 09:00:10;;;;;;;3.40;1.20;;;4.80;99.90;;;;;;5053758;28;20053;-71
2022/01/20 09:02:37;;;;;;;2.90;1.30;;;4.70;99.90;;;;;;5054869;28;20056;-72
2022/01/20 09:05:05;;;;;;;6.35;1.70;;;5.40;99.90;;;;;;5052829;28;20500;-74
2022/01/20 09:07:34;;;;;;;5.80;1.33;;;6.50;99.90;;;;;;5068859;28;20060;-71
2022/01/20 09:10:04;;;;;;;6.55;1.50;;;7.50;99.90;;;;;;5090159;28;20044;-73
2022/01/20 09:15:31;;;;;;;5.88;1.63;;;8.30;99.90;;;;;;5073812;28;20213;-72
2022/01/20 09:18:00;;;;;;;14.60;2.45;;;8.10;99.90;;;;;;5089587;28;20105;-73
2022/01/20 09:20:28;;;;;;;9.15;2.72;;;7.30;99.90;;;;;;5090500;28;20053;-73
2022/01/20 09:22:56;;;;;;;8.80;2.10;;;6.40;99.90;;;;;;5073407;28;20334;-73
2022/01/20 09:25:24;;;;;;;5.68;1.98;;;6.00;99.90;;;;;;5075423;28;20053;-73
2022/01/20 09:27:51;;;;;;;18.63;2.33;;;5.60;99.90;;;;;;5052766;28;20048;-73
2022/01/20 09:30:21;;;;;;;9.18;1.95;;;5.20;99.90;;;;;;5052852;28;20045;-72
2022/01/20 09:32:57;;;;;;;12.60;2.53;;;5.10;99.90;;;;;;5052320;28;20056;-71
2022/01/20 09:35:28;;;;;;;10.90;2.35;;;5.80;99.90;;;;;;5053100;28;20091;-72
2022/01/20 09:37:56;;;;;;;7.32;2.50;;;6.70;99.90;;;;;;5052538;28;20110;-73
2022/01/20 09:40:23;;;;;;;12.70;2.58;;;7.80;99.90;;;;;;5052612;28;20118;-73
2022/01/20 09:42:50;;;;;;;8.98;2.47;;;7.80;99.90;;;;;;5053835;28;20049;-73
2022/01/20 09:45:17;;;;;;;11.15;3.00;;;8.40;99.90;;;;;;5040892;28;20099;-73
2022/01/20 09:47:44;;;;;;;8.93;2.10;;;9.30;99.90;;;;;;5032066;28;20572;-73
2022/01/20 09:50:13;;;;;;;9.75;2.53;;;10.20;99.90;;;;;;5046386;28;20139;-73
2022/01/20 09:52:39;;;;;;;10.93;2.85;;;11.30;99.90;;;;;;5052626;28;20118;-72
2022/01/20 09:55:09;;;;;;;9.32;2.78;;;11.10;99.90;;;;;;5051832;28;20562;-73
2022/01/20 09:57:35;;;;;;;7.82;3.00;;;9.90;99.90;;;;;;5051959;28;20044;-73
2022/01/20 10:00:04;;;;;;;11.02;2.60;;;9.20;99.90;;;;;;5052163;28;20134;-74
2022/01/20 10:02:30;;;;;;;12.40;3.00;;;8.60;99.90;;;;;;5052516;28;20106;-73
2022/01/20 10:04:57;;;;;;;9.02;2.90;;;7.90;99.90;;;;;;5052194;28;20053;-72
2022/01/20 10:07:32;;;;;;;7.43;2.58;;;7.70;99.90;;;;;;5065311;28;20053;-72
2022/01/20 10:09:59;;;;;;;9.15;3.00;;;7.30;99.90;;;;;;5072656;28;20062;-72
2022/01/20 10:12:31;;;;;;;6.53;1.40;;;6.80;99.90;;;;;;5089213;28;20044;-72
2022/01/20 10:14:59;;;;;;;6.38;1.70;;;6.50;99.90;;;;;;5090283;28;20056;-72
2022/01/20 10:17:28;;;;;;;13.98;2.10;;;6.40;99.90;;;;;;5093495;28;20055;-72
2022/01/20 10:19:58;;;;;;;18.55;2.03;;;6.10;99.90;;;;;;5077365;28;20139;-73
2022/01/20 10:22:25;;;;;;;4.75;1.70;;;6.00;99.90;;;;;;5078393;28;20055;-73
2022/01/20 10:25:03;;;;;;;5.88;1.63;;;6.00;99.90;;;;;;5089643;28;20052;-74
2022/01/20 10:27:32;;;;;;;4.93;1.75;;;5.90;99.90;;;;;;5071817;28;20044;-72
2022/01/20 10:30:01;;;;;;;11.43;2.22;;;5.70;99.90;;;;;;5088524;28;20048;-71
2022/01/20 10:32:38;;;;;;;11.82;1.98;;;6.30;99.90;;;;;;5071683;28;20496;-71
2022/01/20 10:35:06;;;;;;;10.05;2.47;;;7.00;99.90;;;;;;5088673;28;20052;-72
2022/01/20 10:37:34;;;;;;;8.70;2.80;;;7.30;99.90;;;;;;5072946;28;20049;-73
2022/01/20 10:40:08;;;;;;;17.33;2.75;;;7.20;99.90;;;;;;5051777;28;20048;-72
2022/01/20 10:42:41;;;;;;;6.85;2.55;;;7.00;99.90;;;;;;5068216;28;20048;-73
2022/01/20 10:45:18;;;;;;;8.82;1.50;;;6.70;99.90;;;;;;5052205;28;20059;-74
2022/01/20 10:47:48;;;;;;;4.70;1.60;;;6.90;99.90;;;;;;5051669;28;20057;-73
2022/01/20 10:50:17;;;;;;;;;;;6.80;99.90;;;;;;5068556;28;20068;-73
2022/01/20 10:52:44;;;;;;;5.70;1.58;;;7.70;99.90;;;;;;5051760;28;19920;-74
2022/01/20 10:55:23;;;;;;;8.48;2.20;;;9.20;99.90;;;;;;5051866;28;20385;-73
2022/01/20 10:57:52;;;;;;;13.10;2.30;;;10.50;99.90;;;;;;5069838;28;20048;-72
2022/01/20 11:00:21;;;;;;;9.68;2.22;;;11.20;99.90;;;;;;5088617;28;20059;-73
2022/01/20 11:02:53;;;;;;;6.15;2.25;;;12.10;99.60;;;;;;5031867;28;20485;-73
2022/01/20 11:05:20;;;;;;;8.13;2.78;;;12.40;98.50;;;;;;5031385;28;20053;-73
2022/01/20 11:07:48;;;;;;;7.88;2.80;;;11.80;99.70;;;;;;5065247;28;20455;-73
2022/01/20 11:10:17;;;;;;;16.23;3.45;;;10.60;99.90;;;;;;5066725;28;20056;-73
2022/01/20 11:12:44;;;;;;;12.27;2.80;;;8.90;99.90;;;;;;5051294;28;20049;-75
2022/01/20 11:15:15;;;;;;;10.75;2.50;;;7.70;99.90;;;;;;5042744;28;20542;-73
2022/01/20 11:17:42;;;;;;;8.82;2.08;;;7.10;99.90;;;;;;5031750;28;20444;-72
2022/01/20 11:20:11;;;;;;;7.47;2.55;;;6.60;99.90;;;;;;5045333;28;20053;-72
2022/01/20 11:22:39;;;;;;;7.50;2.22;;;6.40;99.90;;;;;;5062521;28;20053;-73
2022/01/20 11:25:09;;;;;;;10.07;2.67;;;6.30;99.90;;;;;;5054008;28;20052;-72
2022/01/20 11:27:38;;;;;;;14.30;3.00;;;7.50;99.90;;;;;;5053289;28;20080;-72
2022/01/20 11:30:21;;;;;;;12.20;3.10;;;8.70;99.90;;;;;;5054555;28;20056;-74
2022/01/20 11:32:59;;;;;;;10.88;3.10;;;8.60;99.90;;;;;;5052388;28;20151;-73
2022/01/20 11:35:38;;;;;;;7.85;2.55;;;8.00;99.90;;;;;;5069457;28;20049;-72
2022/01/20 11:38:05;;;;;;;11.32;3.00;;;7.00;99.90;;;;;;5052858;28;20060;-73
2022/01/20 11:40:32;;;;;;;13.32;3.13;;;6.20;99.90;;;;;;5052809;28;20102;-72
2022/01/20 11:43:03;;;;;;;14.65;2.95;;;5.50;99.90;;;;;;5056470;28;20554;-73
2022/01/20 11:45:34;;;;;;;10.20;2.88;;;5.10;99.90;;;;;;5053959;28;20060;-73
2022/01/20 11:48:13;;;;;;;8.02;2.45;;;4.80;99.90;;;;;;5052319;28;20115;-74
2022/01/20 11:50:40;;;;;;;14.40;3.05;;;4.80;99.90;;;;;;5054277;28;20095;-72
2022/01/20 11:53:15;;;;;;;9.10;2.70;;;4.80;99.90;;;;;;5053291;28;20076;-73
2022/01/20 11:55:47;;;;;;;8.88;2.33;;;5.10;99.90;;;;;;5057750;28;20048;-78
2022/01/20 11:58:15;;;;;;;10.57;2.47;;;6.80;99.90;;;;;;5054853;28;20412;-74
2022/01/20 12:00:44;;;;;;;6.10;1.88;;;8.40;99.90;;;;;;5053494;28;20173;-72
2022/01/20 12:03:13;;;;;;;10.75;2.78;;;10.10;99.90;;;;;;5053670;28;20045;-74
2022/01/20 12:05:40;;;;;;;10.88;2.63;;;11.00;99.90;;;;;;5051686;28;20049;-73
2022/01/20 12:08:10;;;;;;;13.48;2.60;;;11.60;99.90;;;;;;5052843;28;20053;-72
2022/01/20 12:10:38;;;;;;;10.55;2.90;;;11.30;99.90;;;;;;5053596;28;20056;-74
2022/01/20 12:13:06;;;;;;;8.05;2.83;;;10.60;99.90;;;;;;5053597;28;20045;-74
2022/01/20 12:15:33;;;;;;;11.02;2.33;;;9.90;99.90;;;;;;5053371;28;20122;-73
2022/01/20 12:18:01;;;;;;;18.13;3.40;;;9.10;99.90;;;;;;5053688;28;20106;-74
2022/01/20 12:20:28;;;;;;;11.88;3.10;;;8.60;99.90;;;;;;5053848;28;20497;-74
2022/01/20 12:22:55;;;;;;;12.77;2.70;;;8.00;99.90;;;;;;5052829;28;20407;-73
2022/01/20 12:25:24;;;;;;;9.73;2.55;;;7.50;99.90;;;;;;5054102;28;20582;-73
2022/01/20 12:27:51;;;;;;;11.27;2.90;;;7.70;99.90;;;;;;5052825;28;20048;-73
2022/01/20 12:30:21;;;;;;;12.25;2.85;;;8.10;99.90;;;;;;5068926;28;20122;-74
2022/01/20 12:33:06;;;;;;;11.73;2.97;;;8.20;99.90;;;;;;5054298;28;20099;-72
2022/01/20 12:35:38;;;;;;;15.05;3.45;;;7.70;99.90;;;;;;5056126;28;20084;-72
2022/01/20 12:38:21;;;;;;;13.10;2.95;;;7.10;99.90;;;;;;5089675;28;20079;-73
2022/01/20 12:40:58;;;;;;;15.38;3.08;;;7.40;99.90;;;;;;5075711;28;20106;-72
2022/01/20 12:43:34;;;;;;;12.27;3.25;;;7.80;99.90;;;;;;5073814;28;20048;-73
2022/01/20 12:46:01;;;;;;;7.47;2.10;;;8.70;99.90;;;;;;5091176;28;20044;-73
2022/01/20 12:48:29;;;;;;;12.40;3.05;;;9.60;99.90;;;;;;5073992;28;20522;-73
2022/01/20 12:50:59;;;;;;;13.52;3.25;;;11.00;99.90;;;;;;5090777;28;20089;-74
2022/01/20 12:53:35;;;;;;;14.40;2.75;;;11.10;99.90;;;;;;5063526;28;20049;-73
2022/01/20 12:56:02;;;;;;;7.82;2.47;;;10.50;99.90;;;;;;5053205;28;20053;-73
2022/01/20 12:58:29;;;;;;;14.43;3.60;;;9.70;99.90;;;;;;5070380;28;20049;-73
2022/01/20 13:01:01;;;;;;;13.43;3.20;;;9.10;99.90;;;;;;5089929;28;20053;-73
2022/01/20 13:03:37;;;;;;;9.45;3.13;;;8.50;99.90;;;;;;5089963;28;20045;-72
2022/01/20 13:06:05;;;;;;;6.55;1.90;;;8.00;99.90;;;;;;5089735;28;20102;-73
2022/01/20 13:08:36;;;;;;;4.70;1.80;;;7.60;99.90;;;;;;5053749;28;20057;-72
2022/01/20 13:11:05;;;;;;;3.78;1.42;;;7.10;99.90;;;;;;5053154;28;20059;-73
2022/01/20 13:13:32;;;;;;;4.57;1.50;;;6.70;99.90;;;;;;5053139;28;20555;-73
2022/01/20 13:16:09;;;;;;;7.10;1.40;;;6.40;99.90;;;;;;5053644;28;20053;-72
2022/01/20 13:18:37;;;;;;;5.75;1.67;;;7.20;99.90;;;;;;5053095;28;20095;-73
2022/01/20 13:21:07;;;;;;;4.30;1.10;;;8.80;99.90;;;;;;5053476;28;20500;-73
2022/01/20 13:23:58;;;;;;;4.75;1.40;;;9.50;99.90;;;;;;5053024;28;20041;-72
2022/01/20 13:26:26;;;;;;;10.63;1.98;;;10.70;99.90;;;;;;5053618;28;20057;-73
2022/01/20 13:29:01;;;;;;;8.52;2.10;;;11.60;99.90;;;;;;5053488;28;20053;-73
2022/01/20 13:31:28;;;;;;;6.57;2.22;;;12.30;99.90;;;;;;5052560;28;20505;-73
2022/01/20 13:34:00;;;;;;;9.13;2.70;;;12.40;98.10;;;;;;5052693;28;20103;-73
2022/01/20 13:36:44;;;;;;;10.98;2.28;;;11.50;98.20;;;;;;5059191;28;20488;-73
2022/01/20 13:39:12;;;;;;;8.32;2.20;;;10.30;99.90;;;;;;5052851;28;20481;-72
2022/01/20 13:41:41;;;;;;;9.75;2.00;;;9.10;99.90;;;;;;5052706;28;20053;-73
2022/01/20 13:47:04;;;;;;;10.77;2.08;;;8.80;99.90;;;;;;5052715;28;20114;-73
2022/01/20 13:49:32;;;;;;;8.45;1.85;;;9.80;99.90;;;;;;5052695;28;20048;-72
2022/01/20 13:52:02;;;;;;;7.43;2.05;;;10.50;99.90;;;;;;5053174;28;20053;-73
2022/01/20 13:54:43;;;;;;;10.10;1.90;;;10.10;99.90;;;;;;5052714;28;20056;-74
2022/01/20 13:57:10;;;;;;;9.13;2.53;;;9.50;99.90;;;;;;5052981;28;20558;-72
2022/01/20 13:59:49;;;;;;;8.98;2.05;;;8.50;99.90;;;;;;5053036;28;20452;-73